Time;durP1;ratioP1;P1;durP2;ratioP2;P2;SDS_P1;SDS_P2;PMS_P1;PMS_P2;Temp;Humidity;BMP_temperature;BMP_pressure;BME280_temperature;BME280_humidity;BME280_pressure;Samples;Min_cycle;Max_cycle;Signal;HPM_P1;HPM_P2
2022/10/20 00:00:21;;;;;;;14.30;10.23;;;4.30;99.90;;;;;;5114643;28;20062;-72
2022/10/20 00:02:47;;;;;;;15.90;10.88;;;4.10;99.90;;;;;;5114625;28;20016;-73
2022/10/20 00:05:13;;;;;;;15.13;10.65;;;4.00;99.90;;;;;;5113152;28;20026;-72
2022/10/20 00:07:38;;;;;;;17.75;11.48;;;3.90;99.90;;;;;;5114463;28;20031;-74
2022/10/20 00:10:04;;;;;;;22.75;12.90;;;3.90;99.90;;;;;;5114496;28;20478;-72
2022/10/20 00:12:30;;;;;;;20.75;10.95;;;3.90;99.90;;;;;;5113056;28;20028;-72
2022/10/20 00:14:55;;;;;;;17.63;11.00;;;3.70;99.90;;;;;;5114297;28;20465;-73
2022/10/20 00:17:21;;;;;;;19.02;11.48;;;3.60;99.90;;;;;;5114234;28;20020;-73
2022/10/20 00:19:47;;;;;;;18.27;9.95;;;3.50;99.90;;;;;;5114264;28;20023;-72
2022/10/20 00:22:13;;;;;;;18.70;11.57;;;3.50;99.90;;;;;;5114289;28;20047;-73
2022/10/20 00:24:38;;;;;;;22.00;14.43;;;3.40;99.90;;;;;;5114188;28;20469;-74
2022/10/20 00:27:04;;;;;;;41.83;27.13;;;3.40;99.90;;;;;;5092438;28;20024;-74
2022/10/20 00:29:30;;;;;;;32.80;20.92;;;3.30;99.90;;;;;;5092368;28;20027;-72
2022/10/20 00:31:55;;;;;;;28.02;17.15;;;3.30;99.90;;;;;;5091817;28;20034;-72
2022/10/20 00:34:21;;;;;;;24.73;14.57;;;3.30;99.90;;;;;;5093371;28;20032;-74
2022/10/20 00:36:47;;;;;;;20.13;12.32;;;3.30;99.90;;;;;;5092529;28;20027;-72
2022/10/20 00:39:12;;;;;;;19.42;13.05;;;3.20;99.90;;;;;;5093452;28;20044;-74
2022/10/20 00:41:38;;;;;;;29.00;17.17;;;3.20;99.90;;;;;;5093650;28;20080;-72
2022/10/20 00:44:41;;;;;;;23.55;15.70;;;3.10;99.90;;;;;;5093455;28;20024;-74
2022/10/20 00:47:13;;;;;;;25.75;18.00;;;3.10;99.90;;;;;;5093503;28;20028;-72
2022/10/20 00:49:39;;;;;;;25.52;17.33;;;3.00;99.90;;;;;;5093452;28;20039;-73
2022/10/20 00:52:05;;;;;;;25.80;14.38;;;3.00;99.90;;;;;;5092151;28;20393;-72
2022/10/20 00:54:31;;;;;;;26.85;17.58;;;3.00;99.90;;;;;;5093395;28;20103;-73
2022/10/20 00:56:58;;;;;;;30.75;18.98;;;2.90;99.90;;;;;;5093351;28;20103;-74
2022/10/20 00:59:30;;;;;;;31.90;19.67;;;2.90;99.90;;;;;;5091998;28;20118;-73
2022/10/20 01:01:58;;;;;;;28.98;13.48;;;2.80;99.90;;;;;;5093443;28;20468;-72
2022/10/20 01:04:26;;;;;;;14.10;9.80;;;2.80;99.90;;;;;;5092025;28;20367;-72
2022/10/20 01:06:52;;;;;;;17.25;10.15;;;2.60;99.90;;;;;;5093200;28;20055;-73
2022/10/20 01:09:18;;;;;;;18.02;11.90;;;2.50;99.90;;;;;;5093287;28;20052;-74
2022/10/20 01:11:43;;;;;;;15.50;10.65;;;2.40;99.90;;;;;;5093351;28;20028;-74
2022/10/20 01:14:30;;;;;;;22.02;12.77;;;2.40;99.90;;;;;;5091877;28;20119;-73
2022/10/20 01:17:22;;;;;;;17.45;11.38;;;2.40;99.90;;;;;;5091964;28;20058;-73
2022/10/20 01:20:18;;;;;;;15.68;10.15;;;2.30;99.90;;;;;;5093174;28;20111;-72
2022/10/20 01:23:14;;;;;;;17.48;9.60;;;2.30;99.90;;;;;;5093023;28;20020;-74
2022/10/20 01:26:04;;;;;;;13.73;8.43;;;2.10;99.90;;;;;;5100593;28;20059;-72
2022/10/20 01:28:40;;;;;;;10.88;8.15;;;2.10;99.90;;;;;;5112071;28;20027;-72
2022/10/20 01:31:19;;;;;;;14.52;9.45;;;2.00;99.90;;;;;;5098082;28;20039;-71
2022/10/20 01:33:57;;;;;;;17.08;12.23;;;2.00;99.90;;;;;;5092996;28;20051;-73
2022/10/20 01:36:32;;;;;;;17.08;11.32;;;1.90;99.90;;;;;;5093561;28;20027;-72
2022/10/20 01:39:11;;;;;;;15.23;8.65;;;1.90;99.90;;;;;;5091543;28;20099;-73
2022/10/20 01:41:55;;;;;;;13.65;9.15;;;1.90;99.90;;;;;;5091793;28;20028;-73
2022/10/20 01:44:25;;;;;;;17.35;9.50;;;1.90;99.90;;;;;;5093339;28;20032;-72
2022/10/20 01:46:52;;;;;;;16.30;10.68;;;1.90;99.90;;;;;;5096997;28;20518;-73
2022/10/20 01:49:18;;;;;;;16.73;10.30;;;1.80;99.90;;;;;;5096507;28;20024;-74
2022/10/20 01:51:44;;;;;;;17.70;10.88;;;1.80;99.90;;;;;;5095640;28;20724;-72
2022/10/20 01:54:27;;;;;;;18.25;11.45;;;1.70;99.90;;;;;;5096687;28;20054;-72
2022/10/20 01:57:13;;;;;;;17.08;11.23;;;1.70;99.90;;;;;;5095528;28;20026;-74
2022/10/20 01:59:50;;;;;;;17.70;10.35;;;1.70;99.90;;;;;;5096562;28;20024;-72
2022/10/20 02:02:40;;;;;;;14.95;10.13;;;1.60;99.90;;;;;;5095402;28;20024;-72
2022/10/20 02:05:14;;;;;;;20.10;12.35;;;1.70;99.90;;;;;;5096430;28;20028;-72
2022/10/20 02:07:41;;;;;;;17.20;10.82;;;1.60;99.90;;;;;;5095184;28;20032;-74
2022/10/20 02:10:23;;;;;;;14.50;9.18;;;1.50;99.90;;;;;;5096350;28;20031;-73
2022/10/20 02:12:57;;;;;;;17.83;11.70;;;1.40;99.90;;;;;;5096411;28;20037;-76
2022/10/20 02:15:25;;;;;;;16.52;9.20;;;1.40;99.90;;;;;;5096348;28;20021;-73
2022/10/20 02:18:02;;;;;;;14.40;10.52;;;1.40;99.90;;;;;;5095026;28;20031;-74
2022/10/20 02:20:30;;;;;;;17.73;10.55;;;1.30;99.90;;;;;;5096212;28;20039;-73
2022/10/20 02:22:57;;;;;;;18.55;11.02;;;1.30;99.90;;;;;;5096126;28;20028;-75
2022/10/20 02:25:25;;;;;;;15.98;9.70;;;1.30;99.90;;;;;;5102752;28;20019;-74
2022/10/20 02:27:51;;;;;;;14.85;10.55;;;1.30;99.90;;;;;;5116565;28;20035;-75
2022/10/20 02:30:18;;;;;;;16.55;10.60;;;1.30;99.90;;;;;;5107380;28;20107;-75
2022/10/20 02:32:48;;;;;;;17.50;11.65;;;1.30;99.90;;;;;;5095821;28;20485;-75
2022/10/20 02:35:25;;;;;;;17.20;10.75;;;1.20;99.90;;;;;;5096060;28;20020;-73
2022/10/20 02:37:51;;;;;;;17.27;11.20;;;1.20;99.90;;;;;;5095892;28;20548;-75
2022/10/20 02:40:17;;;;;;;13.52;9.45;;;1.20;99.90;;;;;;5095796;28;20127;-74
2022/10/20 02:42:43;;;;;;;15.80;9.40;;;1.10;99.90;;;;;;5095689;28;20023;-74
2022/10/20 02:45:09;;;;;;;20.02;9.45;;;1.10;99.90;;;;;;5095675;28;20031;-74
2022/10/20 02:47:34;;;;;;;22.10;9.57;;;1.10;99.90;;;;;;5095659;28;20036;-73
2022/10/20 02:50:01;;;;;;;15.50;10.18;;;1.10;99.90;;;;;;5094334;28;20036;-74
2022/10/20 02:52:27;;;;;;;14.27;8.43;;;1.10;99.90;;;;;;5102306;28;20020;-75
2022/10/20 02:54:52;;;;;;;13.82;9.15;;;1.10;99.90;;;;;;5114175;28;20054;-73
2022/10/20 02:57:18;;;;;;;12.50;8.68;;;1.10;99.90;;;;;;5114173;28;20019;-74
2022/10/20 02:59:44;;;;;;;11.73;7.97;;;1.10;99.90;;;;;;5114523;28;20084;-73
2022/10/20 03:02:09;;;;;;;13.80;8.00;;;1.10;99.90;;;;;;5114659;28;20019;-74
2022/10/20 03:04:35;;;;;;;13.68;8.32;;;1.00;99.90;;;;;;5106137;28;20099;-73
2022/10/20 03:07:00;;;;;;;19.45;10.65;;;1.00;99.90;;;;;;5095478;28;20535;-73
2022/10/20 03:09:26;;;;;;;12.65;7.70;;;0.90;99.90;;;;;;5095401;28;20367;-75
2022/10/20 03:11:52;;;;;;;10.52;7.78;;;0.90;99.90;;;;;;5095205;28;20028;-74
2022/10/20 03:14:17;;;;;;;11.65;8.38;;;0.90;99.90;;;;;;5093664;28;20032;-74
2022/10/20 03:16:43;;;;;;;10.75;8.25;;;0.80;99.90;;;;;;5101330;28;20055;-74
2022/10/20 03:19:08;;;;;;;10.15;7.25;;;0.80;99.90;;;;;;5115550;28;20016;-74
2022/10/20 03:21:34;;;;;;;10.25;8.55;;;0.80;99.90;;;;;;5115368;28;20051;-73
2022/10/20 03:23:59;;;;;;;10.50;7.38;;;0.80;99.90;;;;;;5115657;28;20027;-75
2022/10/20 03:26:25;;;;;;;11.82;7.22;;;0.70;99.90;;;;;;5099410;28;20461;-74
2022/10/20 03:28:51;;;;;;;12.65;7.70;;;0.80;99.90;;;;;;5112051;28;20511;-74
2022/10/20 03:31:16;;;;;;;19.55;9.38;;;0.70;99.90;;;;;;5096342;28;20526;-75
2022/10/20 03:33:42;;;;;;;14.45;8.00;;;0.70;99.90;;;;;;5093504;28;20504;-75
2022/10/20 03:36:08;;;;;;;10.35;6.88;;;0.60;99.90;;;;;;5094783;28;20035;-74
2022/10/20 03:38:33;;;;;;;13.80;7.43;;;0.60;99.90;;;;;;5093488;28;20385;-74
2022/10/20 03:40:59;;;;;;;10.80;7.43;;;0.50;99.90;;;;;;5107401;28;20150;-73
2022/10/20 03:43:24;;;;;;;11.75;7.32;;;0.50;99.90;;;;;;5115017;28;20027;-74
2022/10/20 03:45:59;;;;;;;11.82;7.30;;;0.40;99.90;;;;;;5114881;28;20027;-73
2022/10/20 03:48:25;;;;;;;9.50;7.18;;;0.40;99.90;;;;;;5114929;28;20035;-75
2022/10/20 03:50:50;;;;;;;10.85;6.38;;;0.30;99.90;;;;;;5113467;28;20067;-75
2022/10/20 03:53:16;;;;;;;12.45;7.55;;;0.30;99.90;;;;;;5113501;28;20366;-74
2022/10/20 03:55:41;;;;;;;16.30;8.73;;;0.30;99.90;;;;;;5114467;28;20096;-75
2022/10/20 03:58:07;;;;;;;15.05;9.07;;;0.30;99.90;;;;;;5113500;28;20370;-73
2022/10/20 04:00:32;;;;;;;15.48;8.80;;;0.30;99.90;;;;;;5114594;28;20396;-74
2022/10/20 04:02:58;;;;;;;13.25;9.25;;;0.30;99.90;;;;;;5114560;27;20024;-74
2022/10/20 04:05:24;;;;;;;15.20;9.60;;;0.40;99.90;;;;;;5114437;28;20489;-73
2022/10/20 04:07:49;;;;;;;13.52;8.05;;;0.30;99.90;;;;;;5114610;28;20023;-74
2022/10/20 04:10:16;;;;;;;10.88;8.18;;;0.30;99.90;;;;;;5114431;28;20102;-74
2022/10/20 04:12:42;;;;;;;13.95;7.65;;;0.30;99.90;;;;;;5113144;28;20097;-73
2022/10/20 04:15:08;;;;;;;8.65;6.82;;;0.30;99.90;;;;;;5114459;28;20055;-74
2022/10/20 04:17:35;;;;;;;10.30;6.47;;;0.30;99.90;;;;;;5114218;28;20016;-75
2022/10/20 04:20:02;;;;;;;10.25;6.13;;;0.30;99.90;;;;;;5113030;28;20023;-75
2022/10/20 04:22:28;;;;;;;13.45;6.65;;;0.30;99.90;;;;;;5112838;28;20019;-75
2022/10/20 04:24:53;;;;;;;15.40;7.90;;;0.30;99.90;;;;;;5110929;28;20027;-75
2022/10/20 04:27:19;;;;;;;11.38;7.35;;;0.20;99.90;;;;;;5093852;28;20020;-75
2022/10/20 04:29:46;;;;;;;10.30;6.88;;;0.20;99.90;;;;;;5106584;28;20024;-74
2022/10/20 04:32:11;;;;;;;13.18;7.80;;;0.30;99.90;;;;;;5092268;28;20024;-74
2022/10/20 04:34:37;;;;;;;10.10;7.95;;;0.30;99.90;;;;;;5091702;28;20436;-74
2022/10/20 04:37:02;;;;;;;8.45;5.53;;;0.30;99.90;;;;;;5089668;28;20049;-74
2022/10/20 04:39:28;;;;;;;11.00;6.65;;;0.20;99.90;;;;;;5108592;28;20094;-76
2022/10/20 04:41:53;;;;;;;9.80;6.72;;;0.20;99.90;;;;;;5102705;28;20011;-75
2022/10/20 04:44:19;;;;;;;9.15;6.40;;;0.20;99.90;;;;;;5107077;28;20491;-75
2022/10/20 04:46:44;;;;;;;12.85;6.88;;;0.20;99.90;;;;;;5112884;28;20500;-74
2022/10/20 04:49:10;;;;;;;11.68;7.68;;;0.20;99.90;;;;;;5096613;28;20431;-74
2022/10/20 04:51:36;;;;;;;13.30;6.07;;;0.20;99.90;;;;;;5102943;28;20016;-74
2022/10/20 04:54:01;;;;;;;7.97;6.07;;;0.20;99.90;;;;;;5103271;28;20040;-74
2022/10/20 04:56:27;;;;;;;11.07;6.93;;;0.10;99.90;;;;;;5102399;28;20107;-75
2022/10/20 04:58:57;;;;;;;11.38;7.63;;;0.10;99.90;;;;;;5113436;28;20030;-76
2022/10/20 05:01:25;;;;;;;14.82;7.05;;;0.00;99.90;;;;;;5113402;28;20066;-74
2022/10/20 05:03:50;;;;;;;12.32;7.15;;;0.00;99.90;;;;;;5106621;28;20024;-74
2022/10/20 05:06:21;;;;;;;9.85;6.50;;;0.00;99.90;;;;;;5113157;28;20030;-74
2022/10/20 05:08:50;;;;;;;17.48;7.95;;;0.00;99.90;;;;;;5112234;28;20089;-73
2022/10/20 05:11:18;;;;;;;14.00;6.68;;;-0.10;99.90;;;;;;5093086;28;20024;-74
2022/10/20 05:13:43;;;;;;;10.25;6.65;;;-0.10;99.90;;;;;;5097837;28;20039;-74
2022/10/20 05:16:10;;;;;;;11.18;7.47;;;-0.10;99.90;;;;;;5108073;28;20413;-75
2022/10/20 05:18:37;;;;;;;22.08;10.45;;;-0.10;99.90;;;;;;5098872;28;20468;-75
2022/10/20 05:21:15;;;;;;;10.68;8.85;;;-0.20;99.90;;;;;;5117734;28;20047;-74
2022/10/20 05:23:41;;;;;;;12.70;8.50;;;-0.20;99.90;;;;;;5117200;28;20521;-76
2022/10/20 05:26:13;;;;;;;197.45;87.07;;;-0.30;99.90;;;;;;5104212;28;20024;-75
2022/10/20 05:28:42;;;;;;;66.45;31.60;;;-0.30;99.90;;;;;;5117620;28;20437;-76
2022/10/20 05:31:08;;;;;;;49.58;23.88;;;-0.20;99.90;;;;;;5095111;28;20048;-74
2022/10/20 05:33:34;;;;;;;71.28;33.85;;;-0.10;99.90;;;;;;5115418;28;20077;-75
2022/10/20 05:36:09;;;;;;;79.38;35.83;;;0.00;99.90;;;;;;5114467;28;20031;-74
2022/10/20 05:38:35;;;;;;;85.00;40.88;;;0.00;99.90;;;;;;5095766;28;20016;-74
2022/10/20 05:41:12;;;;;;;64.03;31.63;;;0.10;99.90;;;;;;5115289;28;20043;-74
2022/10/20 05:43:38;;;;;;;38.20;18.02;;;0.20;99.90;;;;;;5108946;27;20031;-75
2022/10/20 05:46:05;;;;;;;20.05;12.10;;;0.30;99.90;;;;;;5096909;28;20378;-75
2022/10/20 05:48:31;;;;;;;19.08;11.38;;;0.40;99.90;;;;;;5094565;28;20652;-75
2022/10/20 05:51:11;;;;;;;22.90;13.02;;;0.40;99.90;;;;;;5096083;28;20103;-74
2022/10/20 05:53:38;;;;;;;28.02;13.65;;;0.50;99.90;;;;;;5096575;28;20127;-75
2022/10/20 05:56:09;;;;;;;38.58;18.40;;;0.50;99.90;;;;;;5116399;28;20385;-75
2022/10/20 05:58:34;;;;;;;25.52;14.30;;;0.40;99.90;;;;;;5101209;28;20051;-74
2022/10/20 06:01:15;;;;;;;20.33;10.48;;;0.40;99.90;;;;;;5096054;28;20059;-74
2022/10/20 06:03:40;;;;;;;21.73;12.15;;;0.30;99.90;;;;;;5096183;28;20103;-75
2022/10/20 06:06:06;;;;;;;120.50;72.38;;;0.30;99.90;;;;;;5094838;28;20111;-74
2022/10/20 06:08:32;;;;;;;44.17;24.80;;;0.40;99.90;;;;;;5097966;28;20074;-75
2022/10/20 06:11:06;;;;;;;29.85;15.32;;;0.50;99.90;;;;;;5103184;28;20020;-75
2022/10/20 06:13:32;;;;;;;19.63;12.43;;;0.60;99.90;;;;;;5096301;28;20513;-75
2022/10/20 06:16:03;;;;;;;21.75;11.85;;;0.80;99.90;;;;;;5098455;28;20028;-74
2022/10/20 06:18:29;;;;;;;17.67;11.23;;;0.90;99.90;;;;;;5095956;28;20020;-74
2022/10/20 06:21:00;;;;;;;20.35;13.07;;;1.00;99.90;;;;;;5096232;28;20024;-74
2022/10/20 06:23:25;;;;;;;25.48;12.98;;;1.20;99.90;;;;;;5094752;28;20051;-74
2022/10/20 06:25:51;;;;;;;20.73;12.52;;;1.30;99.90;;;;;;5108093;28;20116;-73
2022/10/20 06:28:17;;;;;;;21.15;12.27;;;1.50;99.90;;;;;;5102012;28;20035;-74
2022/10/20 06:30:42;;;;;;;21.60;12.45;;;1.60;99.90;;;;;;5093626;28;20050;-74
2022/10/20 06:33:11;;;;;;;28.00;12.70;;;1.70;99.90;;;;;;5094969;28;20055;-74
2022/10/20 06:35:37;;;;;;;18.13;10.55;;;1.80;99.90;;;;;;5094686;28;20024;-73
2022/10/20 06:38:03;;;;;;;15.55;9.82;;;1.90;99.90;;;;;;5093053;28;20008;-74
2022/10/20 06:40:28;;;;;;;16.23;9.00;;;2.00;99.90;;;;;;5105649;28;20096;-74
2022/10/20 06:42:54;;;;;;;14.68;9.82;;;2.10;99.90;;;;;;5097678;28;20024;-74
2022/10/20 06:45:19;;;;;;;15.75;10.55;;;2.20;99.90;;;;;;5094575;28;20683;-73
2022/10/20 06:47:45;;;;;;;16.30;9.40;;;2.30;99.90;;;;;;5112667;28;20019;-75
2022/10/20 06:50:10;;;;;;;17.80;10.05;;;2.50;99.90;;;;;;5113118;28;20027;-74
2022/10/20 06:52:36;;;;;;;18.90;11.02;;;2.70;99.90;;;;;;5111921;28;20027;-75
2022/10/20 06:55:01;;;;;;;16.75;10.52;;;2.80;99.90;;;;;;5112032;28;20041;-71
2022/10/20 06:57:30;;;;;;;17.63;11.00;;;3.00;99.90;;;;;;5111965;28;20023;-73
2022/10/20 06:59:55;;;;;;;18.60;11.10;;;3.10;99.90;;;;;;5111276;28;20381;-72
2022/10/20 07:02:21;;;;;;;20.25;11.48;;;3.30;99.90;;;;;;5114440;28;20024;-71
2022/10/20 07:04:49;;;;;;;23.23;12.05;;;3.50;99.90;;;;;;5113323;28;20110;-72
2022/10/20 07:07:14;;;;;;;17.77;10.98;;;3.70;99.90;;;;;;5116002;28;20051;-73
2022/10/20 07:09:40;;;;;;;26.25;16.10;;;3.90;99.90;;;;;;5113133;28;20032;-72
2022/10/20 07:12:05;;;;;;;18.48;11.13;;;4.10;99.90;;;;;;5095360;28;20485;-71
2022/10/20 07:14:31;;;;;;;16.75;10.60;;;4.20;99.90;;;;;;5093887;28;20031;-73
2022/10/20 07:16:56;;;;;;;23.20;12.45;;;4.30;99.90;;;;;;5108520;28;20016;-72
2022/10/20 07:19:22;;;;;;;15.07;10.02;;;4.50;99.90;;;;;;5114319;28;20020;-72
2022/10/20 07:21:48;;;;;;;20.42;10.77;;;4.60;99.90;;;;;;5115585;28;20020;-73
2022/10/20 07:24:15;;;;;;;18.00;11.23;;;4.70;99.90;;;;;;5115457;28;20051;-73
2022/10/20 07:26:41;;;;;;;15.43;10.80;;;4.70;99.90;;;;;;5096084;28;20377;-72
2022/10/20 07:29:07;;;;;;;13.80;9.88;;;4.90;99.90;;;;;;5094707;28;20024;-71
2022/10/20 07:31:36;;;;;;;21.85;12.27;;;4.90;99.90;;;;;;5095085;28;20409;-73
2022/10/20 07:34:03;;;;;;;23.13;12.88;;;5.00;99.90;;;;;;5093615;28;20493;-72
2022/10/20 07:36:30;;;;;;;14.52;9.73;;;5.10;99.90;;;;;;5095082;28;20480;-73
2022/10/20 07:38:59;;;;;;;16.45;10.38;;;5.20;99.90;;;;;;5094523;28;20081;-70
2022/10/20 07:41:26;;;;;;;14.20;9.80;;;5.30;99.90;;;;;;5094378;28;20471;-71
2022/10/20 07:43:52;;;;;;;16.60;10.23;;;5.40;99.90;;;;;;5094727;28;20093;-74
2022/10/20 07:46:18;;;;;;;22.30;11.93;;;5.40;99.90;;;;;;5094739;28;20474;-73
2022/10/20 07:48:44;;;;;;;20.95;14.07;;;5.50;99.90;;;;;;5093351;28;20058;-73
2022/10/20 07:51:27;;;;;;;17.55;9.00;;;5.60;99.90;;;;;;5093346;28;20020;-73
2022/10/20 07:53:56;;;;;;;14.45;9.18;;;5.80;99.90;;;;;;5111421;28;20039;-72
2022/10/20 07:56:21;;;;;;;11.77;8.10;;;5.90;99.90;;;;;;5114971;28;20035;-71
2022/10/20 07:58:48;;;;;;;12.98;8.40;;;6.00;99.90;;;;;;5114704;28;20024;-72
2022/10/20 08:01:14;;;;;;;9.98;7.00;;;6.20;99.90;;;;;;5114804;28;20473;-74
2022/10/20 08:03:40;;;;;;;12.20;8.23;;;6.40;99.90;;;;;;5113346;28;20036;-74
2022/10/20 08:06:06;;;;;;;11.07;7.32;;;6.50;99.90;;;;;;5114703;28;20094;-74
2022/10/20 08:08:32;;;;;;;12.07;7.43;;;6.60;99.90;;;;;;5113443;28;20392;-74
2022/10/20 08:10:58;;;;;;;6.93;4.78;;;6.70;99.90;;;;;;5106160;28;20028;-74
2022/10/20 08:13:24;;;;;;;7.78;5.60;;;6.80;99.90;;;;;;5092902;28;20036;-72
2022/10/20 08:15:50;;;;;;;7.15;5.25;;;6.80;99.90;;;;;;5094126;28;20065;-72
2022/10/20 08:18:16;;;;;;;8.07;5.95;;;6.90;99.90;;;;;;5113651;28;20024;-71
2022/10/20 08:20:41;;;;;;;9.40;6.05;;;7.00;99.90;;;;;;5114360;28;20031;-73
2022/10/20 08:23:07;;;;;;;8.80;5.28;;;7.00;99.90;;;;;;5102883;28;20019;-74
2022/10/20 08:25:33;;;;;;;7.07;3.85;;;7.20;99.90;;;;;;5102685;28;20461;-72
2022/10/20 08:27:59;;;;;;;4.97;3.67;;;7.20;99.90;;;;;;5114338;28;20041;-74
2022/10/20 08:30:24;;;;;;;5.60;4.05;;;7.20;99.90;;;;;;5114139;28;20031;-73
2022/10/20 08:32:51;;;;;;;7.53;4.05;;;7.30;99.90;;;;;;5114284;28;20030;-72
2022/10/20 08:35:17;;;;;;;4.82;3.42;;;7.40;99.90;;;;;;5114155;28;20473;-71
2022/10/20 08:37:43;;;;;;;7.28;2.67;;;7.50;99.90;;;;;;5114215;28;20047;-73
2022/10/20 08:40:15;;;;;;;3.90;2.42;;;7.60;99.90;;;;;;5112749;28;20086;-74
2022/10/20 08:42:45;;;;;;;4.67;2.53;;;7.70;99.90;;;;;;5094600;28;20112;-71
2022/10/20 08:45:19;;;;;;;3.92;2.28;;;7.70;99.90;;;;;;5093699;28;20382;-74
2022/10/20 08:47:47;;;;;;;2.00;1.90;;;7.80;99.90;;;;;;5092149;28;20066;-71
2022/10/20 08:50:16;;;;;;;2.20;1.83;;;7.80;99.90;;;;;;5093624;28;20419;-71
2022/10/20 08:52:43;;;;;;;4.00;1.80;;;7.90;99.90;;;;;;5093320;28;20058;-73
2022/10/20 08:55:30;;;;;;;2.40;1.80;;;7.90;99.90;;;;;;5092998;28;20032;-72
2022/10/20 08:58:02;;;;;;;1.40;1.30;;;8.00;99.90;;;;;;5093765;28;20073;-74
2022/10/20 09:00:30;;;;;;;1.73;1.45;;;8.00;99.90;;;;;;5093663;28;20022;-71
2022/10/20 09:03:01;;;;;;;3.47;1.52;;;8.10;99.90;;;;;;5093713;28;20031;-75
2022/10/20 09:05:29;;;;;;;1.77;1.27;;;8.10;99.90;;;;;;5092109;28;20527;-71
2022/10/20 09:07:54;;;;;;;2.20;1.60;;;8.10;99.90;;;;;;5093398;28;20052;-71
2022/10/20 09:10:23;;;;;;;1.92;1.27;;;8.10;99.90;;;;;;5093459;28;20093;-71
2022/10/20 09:12:50;;;;;;;2.20;1.50;;;8.20;99.90;;;;;;5093533;28;20036;-73
2022/10/20 09:15:18;;;;;;;2.83;1.40;;;8.20;99.90;;;;;;5093302;28;20065;-73
2022/10/20 09:18:05;;;;;;;1.58;1.48;;;8.10;96.30;;;;;;5092120;28;20016;-74
2022/10/20 09:20:35;;;;;;;2.28;1.75;;;8.10;99.90;;;;;;5093262;28;20477;-74
2022/10/20 09:23:00;;;;;;;1.83;1.30;;;8.00;99.90;;;;;;5098764;28;20027;-74
2022/10/20 09:25:26;;;;;;;3.08;1.20;;;7.90;99.90;;;;;;5104044;28;20009;-73
2022/10/20 09:27:55;;;;;;;2.28;1.30;;;7.90;99.90;;;;;;5092126;28;20099;-72
2022/10/20 09:30:24;;;;;;;3.47;1.00;;;8.10;99.90;;;;;;5093263;28;20059;-71
2022/10/20 09:32:50;;;;;;;0.93;0.70;;;8.20;97.80;;;;;;5093204;28;20077;-74
2022/10/20 09:35:25;;;;;;;1.25;0.80;;;8.40;91.60;;;;;;5104350;28;20012;-72
2022/10/20 09:38:06;;;;;;;3.47;1.45;;;8.40;89.70;;;;;;5112438;28;20024;-74
2022/10/20 09:40:32;;;;;;;2.40;1.10;;;8.50;88.30;;;;;;5112003;28;20055;-71
2022/10/20 09:43:09;;;;;;;1.42;1.25;;;8.60;92.00;;;;;;5093866;28;20434;-74
2022/10/20 09:45:46;;;;;;;1.13;1.02;;;8.70;90.90;;;;;;5091864;28;20032;-73
2022/10/20 09:48:24;;;;;;;1.08;1.00;;;8.70;91.40;;;;;;5092962;28;20028;-71
2022/10/20 09:50:54;;;;;;;2.22;1.20;;;8.80;89.30;;;;;;5093080;28;20386;-71
2022/10/20 09:53:27;;;;;;;3.47;1.20;;;9.00;89.90;;;;;;5093068;28;20461;-74
2022/10/20 09:55:53;;;;;;;1.15;1.00;;;9.10;93.90;;;;;;5091700;28;20020;-74
2022/10/20 09:58:31;;;;;;;1.27;1.02;;;9.10;88.30;;;;;;5093133;28;20028;-71
2022/10/20 10:01:01;;;;;;;1.27;1.17;;;9.20;89.50;;;;;;5072789;28;20382;-71
2022/10/20 10:03:27;;;;;;;0.95;0.95;;;9.30;88.00;;;;;;5072720;28;20158;-74
2022/10/20 10:05:58;;;;;;;2.00;1.10;;;9.40;89.70;;;;;;5075051;28;20017;-71
2022/10/20 10:08:27;;;;;;;2.80;0.82;;;9.30;87.20;;;;;;5075132;28;20046;-71
2022/10/20 10:11:04;;;;;;;1.63;0.82;;;9.20;80.60;;;;;;5076315;28;20103;-74
2022/10/20 10:13:43;;;;;;;4.07;1.27;;;9.20;80.30;;;;;;5074949;28;20401;-74
2022/10/20 10:16:14;;;;;;;2.00;0.75;;;9.20;83.60;;;;;;5074991;28;20111;-74
2022/10/20 10:18:40;;;;;;;1.58;1.00;;;9.30;83.10;;;;;;5114485;28;20030;-71
2022/10/20 10:21:12;;;;;;;2.17;0.80;;;9.30;82.30;;;;;;5115506;28;20051;-71
2022/10/20 10:23:53;;;;;;;1.58;0.85;;;9.30;80.80;;;;;;5115507;28;20106;-74
2022/10/20 10:26:36;;;;;;;1.35;0.95;;;9.20;81.30;;;;;;5089322;28;20038;-70
2022/10/20 10:29:02;;;;;;;1.20;0.98;;;9.20;81.10;;;;;;5104372;28;20032;-71
2022/10/20 10:31:28;;;;;;;1.00;0.90;;;9.20;82.20;;;;;;5113807;28;20019;-74
2022/10/20 10:34:05;;;;;;;0.85;0.80;;;9.20;85.10;;;;;;5090784;28;20070;-75
2022/10/20 10:36:34;;;;;;;1.33;1.02;;;9.10;79.60;;;;;;5095874;28;20052;-75
2022/10/20 10:39:05;;;;;;;1.63;1.40;;;9.10;77.00;;;;;;5093940;28;20024;-75
2022/10/20 10:41:41;;;;;;;1.33;1.00;;;9.30;79.70;;;;;;5093146;28;20027;-75
2022/10/20 10:44:42;;;;;;;0.77;0.77;;;9.30;77.20;;;;;;5080788;28;20119;-75
2022/10/20 10:47:35;;;;;;;1.27;1.15;;;9.20;76.80;;;;;;5098154;28;20024;-71
2022/10/20 10:50:50;;;;;;;4.25;1.35;;;9.20;78.80;;;;;;5113692;28;20389;-71
2022/10/20 10:53:34;;;;;;;1.63;1.00;;;9.30;79.40;;;;;;5103528;28;20043;-71
2022/10/20 10:56:10;;;;;;;1.48;1.30;;;9.30;76.70;;;;;;5102843;28;20039;-74
2022/10/20 10:58:58;;;;;;;1.63;1.30;;;9.30;78.20;;;;;;5108663;28;20068;-74
2022/10/20 11:01:34;;;;;;;2.03;1.23;;;9.30;77.70;;;;;;5105630;28;20039;-75
2022/10/20 11:04:33;;;;;;;1.85;1.60;;;9.20;74.20;;;;;;5105405;28;20044;-74
2022/10/20 11:07:13;;;;;;;3.35;1.30;;;9.30;74.90;;;;;;5095436;28;20031;-75
2022/10/20 11:09:39;;;;;;;1.42;1.27;;;9.30;76.50;;;;;;5092419;28;20595;-75
2022/10/20 11:12:40;;;;;;;2.30;1.33;;;9.40;79.10;;;;;;5093575;28;20024;-75
2022/10/20 11:15:25;;;;;;;2.67;1.20;;;9.40;80.90;;;;;;5095213;28;20048;-75
2022/10/20 11:18:29;;;;;;;3.65;1.40;;;9.50;81.00;;;;;;5094094;27;20124;-75
2022/10/20 11:21:09;;;;;;;1.30;1.20;;;9.60;78.70;;;;;;5078655;28;20032;-75
2022/10/20 11:23:46;;;;;;;1.30;1.20;;;9.60;75.40;;;;;;5090406;27;20486;-74
2022/10/20 11:26:16;;;;;;;5.55;1.40;;;9.60;79.00;;;;;;5090407;28;20020;-74
2022/10/20 11:28:45;;;;;;;1.42;1.23;;;9.50;77.70;;;;;;5094814;28;20388;-71
2022/10/20 11:31:24;;;;;;;1.63;1.52;;;9.50;74.90;;;;;;5109218;28;20457;-74
2022/10/20 11:34:10;;;;;;;1.98;1.50;;;9.20;74.50;;;;;;5113177;27;20043;-71
2022/10/20 11:36:48;;;;;;;2.05;1.30;;;9.10;75.70;;;;;;5113806;28;20024;-74
2022/10/20 11:39:23;;;;;;;3.55;1.50;;;9.20;79.40;;;;;;5113389;28;20052;-74
2022/10/20 11:41:53;;;;;;;2.78;2.08;;;9.30;78.40;;;;;;5092536;28;20023;-74
2022/10/20 11:44:32;;;;;;;1.20;1.02;;;9.40;77.00;;;;;;5111862;28;20050;-74
2022/10/20 11:47:09;;;;;;;2.75;1.70;;;9.40;76.60;;;;;;5110625;28;20098;-71
2022/10/20 11:49:39;;;;;;;1.75;1.27;;;9.40;77.50;;;;;;5111335;28;20086;-74
2022/10/20 11:52:23;;;;;;;3.42;1.80;;;9.40;76.40;;;;;;5109925;28;20675;-71
2022/10/20 11:55:10;;;;;;;1.00;1.00;;;9.40;73.30;;;;;;5088983;28;20050;-70
2022/10/20 11:57:48;;;;;;;1.77;1.42;;;9.50;71.80;;;;;;5094483;28;20032;-75
2022/10/20 12:00:19;;;;;;;1.58;1.17;;;9.50;75.40;;;;;;5092963;28;20032;-71
2022/10/20 12:03:23;;;;;;;4.00;1.50;;;9.50;74.90;;;;;;5094165;28;20504;-75
2022/10/20 12:06:13;;;;;;;1.60;0.95;;;9.60;71.80;;;;;;5105456;28;20557;-72
2022/10/20 12:09:13;;;;;;;3.88;1.00;;;9.70;73.60;;;;;;5112837;28;20023;-71
2022/10/20 12:12:05;;;;;;;2.35;1.20;;;9.70;73.50;;;;;;5113137;28;20027;-71
2022/10/20 12:14:46;;;;;;;3.00;1.20;;;9.70;75.50;;;;;;5109738;28;20097;-74
2022/10/20 12:17:26;;;;;;;9.55;2.10;;;9.80;75.80;;;;;;5112337;28;20069;-71
2022/10/20 12:19:51;;;;;;;0.90;0.90;;;9.80;75.50;;;;;;5111027;28;20019;-71
2022/10/20 12:22:17;;;;;;;1.30;1.15;;;9.70;73.00;;;;;;5110638;28;20118;-72
2022/10/20 12:24:48;;;;;;;1.13;0.90;;;9.80;71.90;;;;;;5096772;28;20119;-75
2022/10/20 12:27:28;;;;;;;1.52;1.42;;;9.70;71.60;;;;;;5088896;28;20039;-72
2022/10/20 12:30:15;;;;;;;1.30;0.82;;;9.80;73.50;;;;;;5089796;28;20028;-71
2022/10/20 12:32:57;;;;;;;1.23;1.02;;;9.80;72.40;;;;;;5091490;28;20036;-71
2022/10/20 12:35:22;;;;;;;1.40;1.05;;;9.80;73.10;;;;;;5090419;28;20017;-71
2022/10/20 12:38:03;;;;;;;2.83;1.00;;;9.90;73.50;;;;;;5091728;28;20032;-71
2022/10/20 12:40:42;;;;;;;1.73;1.40;;;9.90;75.20;;;;;;5090166;28;20048;-74
2022/10/20 12:43:34;;;;;;;2.50;1.30;;;9.90;74.80;;;;;;5093864;28;20024;-71
2022/10/20 12:46:08;;;;;;;1.30;1.20;;;9.90;73.40;;;;;;5093875;28;20028;-71
2022/10/20 12:48:40;;;;;;;1.25;1.15;;;9.90;72.90;;;;;;5106176;28;20020;-71
2022/10/20 12:51:14;;;;;;;1.30;1.15;;;9.90;73.20;;;;;;5114205;28;20445;-74
2022/10/20 12:53:40;;;;;;;2.28;1.15;;;10.00;73.40;;;;;;5112679;28;20394;-71
2022/10/20 12:56:11;;;;;;;3.05;1.40;;;10.00;72.50;;;;;;5112622;28;20061;-75
2022/10/20 12:58:58;;;;;;;3.33;1.50;;;10.00;73.20;;;;;;5112658;28;20077;-74
2022/10/20 13:01:24;;;;;;;2.10;1.50;;;10.00;72.90;;;;;;5113883;28;20031;-74
2022/10/20 13:03:51;;;;;;;3.20;1.50;;;10.00;73.90;;;;;;5113909;28;20385;-71
2022/10/20 13:06:23;;;;;;;3.08;1.20;;;9.90;73.90;;;;;;5113939;28;20032;-71